sensor_id;sensor_type;location;lat;lon;timestamp;pressure;altitude;pressure_sealevel;temperature;humidity
71970;BME280;59838;52.152;5.436;2023-08-24T00:01:00;101918.13;;;15.67;100.00
71970;BME280;59838;52.152;5.436;2023-08-24T00:03:27;101916.94;;;15.70;100.00
71970;BME280;59838;52.152;5.436;2023-08-24T00:05:54;101921.81;;;15.73;100.00
71970;BME280;59838;52.152;5.436;2023-08-24T00:08:21;101911.00;;;15.76;100.00
71970;BME280;59838;52.152;5.436;2023-08-24T00:10:48;101913.41;;;15.78;100.00
71970;BME280;59838;52.152;5.436;2023-08-24T00:13:15;101913.00;;;15.81;100.00
71970;BME280;59838;52.152;5.436;2023-08-24T00:15:41;101910.50;;;15.72;100.00
71970;BME280;59838;52.152;5.436;2023-08-24T00:18:08;101898.75;;;15.62;100.00
71970;BME280;59838;52.152;5.436;2023-08-24T00:20:35;101898.91;;;15.53;100.00
71970;BME280;59838;52.152;5.436;2023-08-24T00:23:01;101906.75;;;15.53;100.00
71970;BME280;59838;52.152;5.436;2023-08-24T00:25:28;101904.38;;;15.59;100.00
71970;BME280;59838;52.152;5.436;2023-08-24T00:27:54;101909.03;;;15.63;100.00
71970;BME280;59838;52.152;5.436;2023-08-24T00:30:21;101899.00;;;15.67;100.00
71970;BME280;59838;52.152;5.436;2023-08-24T00:32:48;101906.47;;;15.70;100.00
71970;BME280;59838;52.152;5.436;2023-08-24T00:35:14;101901.25;;;15.70;100.00
71970;BME280;59838;52.152;5.436;2023-08-24T00:37:41;101896.78;;;15.70;100.00
71970;BME280;59838;52.152;5.436;2023-08-24T00:40:08;101889.72;;;15.71;100.00
71970;BME280;59838;52.152;5.436;2023-08-24T00:42:40;101884.31;;;15.72;100.00
71970;BME280;59838;52.152;5.436;2023-08-24T00:45:08;101868.53;;;15.66;100.00
71970;BME280;59838;52.152;5.436;2023-08-24T00:47:46;101869.06;;;15.54;100.00
71970;BME280;59838;52.152;5.436;2023-08-24T00:50:16;101862.22;;;15.53;100.00
71970;BME280;59838;52.152;5.436;2023-08-24T00:52:44;101872.56;;;15.62;100.00
71970;BME280;59838;52.152;5.436;2023-08-24T00:55:13;101866.13;;;15.64;100.00
71970;BME280;59838;52.152;5.436;2023-08-24T00:57:40;101861.91;;;15.63;100.00
71970;BME280;59838;52.152;5.436;2023-08-24T01:00:08;101865.94;;;15.66;100.00
71970;BME280;59838;52.152;5.436;2023-08-24T01:02:38;101866.56;;;15.68;100.00
71970;BME280;59838;52.152;5.436;2023-08-24T01:05:05;101875.84;;;15.70;100.00
71970;BME280;59838;52.152;5.436;2023-08-24T01:07:34;101883.31;;;15.73;100.00
71970;BME280;59838;52.152;5.436;2023-08-24T01:10:03;101871.41;;;15.71;100.00
71970;BME280;59838;52.152;5.436;2023-08-24T01:13:02;101874.03;;;15.71;100.00
71970;BME280;59838;52.152;5.436;2023-08-24T01:15:45;101875.84;;;15.70;100.00
71970;BME280;59838;52.152;5.436;2023-08-24T01:18:16;101879.84;;;15.66;100.00
71970;BME280;59838;52.152;5.436;2023-08-24T01:20:46;101884.91;;;15.68;100.00
71970;BME280;59838;52.152;5.436;2023-08-24T01:25:53;101875.59;;;15.65;100.00
71970;BME280;59838;52.152;5.436;2023-08-24T01:28:20;101868.72;;;15.64;100.00
71970;BME280;59838;52.152;5.436;2023-08-24T01:30:48;101867.31;;;15.62;100.00
71970;BME280;59838;52.152;5.436;2023-08-24T01:33:15;101865.88;;;15.59;100.00
71970;BME280;59838;52.152;5.436;2023-08-24T01:35:41;101870.94;;;15.61;100.00
71970;BME280;59838;52.152;5.436;2023-08-24T01:38:08;101866.31;;;15.63;100.00
71970;BME280;59838;52.152;5.436;2023-08-24T01:40:53;101872.19;;;15.65;100.00
71970;BME280;59838;52.152;5.436;2023-08-24T01:43:25;101875.41;;;15.67;100.00
71970;BME280;59838;52.152;5.436;2023-08-24T01:46:10;101882.91;;;15.70;100.00
71970;BME280;59838;52.152;5.436;2023-08-24T01:48:38;101885.31;;;15.71;100.00
71970;BME280;59838;52.152;5.436;2023-08-24T01:51:06;101901.66;;;15.73;100.00
71970;BME280;59838;52.152;5.436;2023-08-24T01:53:32;101896.41;;;15.73;100.00
71970;BME280;59838;52.152;5.436;2023-08-24T01:55:59;101891.78;;;15.76;100.00
71970;BME280;59838;52.152;5.436;2023-08-24T01:58:26;101872.50;;;15.77;100.00
71970;BME280;59838;52.152;5.436;2023-08-24T02:00:52;101873.63;;;15.74;100.00
71970;BME280;59838;52.152;5.436;2023-08-24T02:03:19;101866.56;;;15.68;100.00
71970;BME280;59838;52.152;5.436;2023-08-24T02:05:45;101865.13;;;15.65;100.00
71970;BME280;59838;52.152;5.436;2023-08-24T02:08:12;101863.94;;;15.68;100.00
71970;BME280;59838;52.152;5.436;2023-08-24T02:10:38;101862.94;;;15.69;100.00
71970;BME280;59838;52.152;5.436;2023-08-24T02:13:05;101864.00;;;15.75;100.00
71970;BME280;59838;52.152;5.436;2023-08-24T02:15:31;101861.22;;;15.76;100.00
71970;BME280;59838;52.152;5.436;2023-08-24T02:17:58;101857.56;;;15.77;100.00
71970;BME280;59838;52.152;5.436;2023-08-24T02:20:24;101854.56;;;15.80;100.00
71970;BME280;59838;52.152;5.436;2023-08-24T02:22:51;101846.28;;;15.77;100.00
71970;BME280;59838;52.152;5.436;2023-08-24T02:25:17;101836.34;;;15.72;100.00
71970;BME280;59838;52.152;5.436;2023-08-24T02:27:44;101849.44;;;15.72;100.00
71970;BME280;59838;52.152;5.436;2023-08-24T02:30:11;101854.16;;;15.77;100.00
71970;BME280;59838;52.152;5.436;2023-08-24T02:32:38;101851.75;;;15.82;100.00
71970;BME280;59838;52.152;5.436;2023-08-24T02:35:05;101838.47;;;15.83;100.00
71970;BME280;59838;52.152;5.436;2023-08-24T02:37:32;101812.38;;;15.75;100.00
71970;BME280;59838;52.152;5.436;2023-08-24T02:39:58;101804.13;;;15.71;100.00
71970;BME280;59838;52.152;5.436;2023-08-24T02:42:24;101798.47;;;15.68;100.00
71970;BME280;59838;52.152;5.436;2023-08-24T02:44:51;101793.22;;;15.68;100.00
71970;BME280;59838;52.152;5.436;2023-08-24T02:47:18;101787.16;;;15.67;100.00
71970;BME280;59838;52.152;5.436;2023-08-24T02:49:44;101775.06;;;15.66;100.00
71970;BME280;59838;52.152;5.436;2023-08-24T02:52:10;101767.03;;;15.68;100.00
71970;BME280;59838;52.152;5.436;2023-08-24T02:54:37;101757.34;;;15.68;100.00
71970;BME280;59838;52.152;5.436;2023-08-24T02:57:03;101750.91;;;15.71;100.00
71970;BME280;59838;52.152;5.436;2023-08-24T02:59:30;101754.94;;;15.73;100.00
71970;BME280;59838;52.152;5.436;2023-08-24T03:01:56;101765.88;;;15.77;100.00
71970;BME280;59838;52.152;5.436;2023-08-24T03:04:23;101777.59;;;15.81;100.00
71970;BME280;59838;52.152;5.436;2023-08-24T03:06:50;101779.19;;;15.82;100.00
71970;BME280;59838;52.152;5.436;2023-08-24T03:09:17;101782.84;;;15.81;100.00
71970;BME280;59838;52.152;5.436;2023-08-24T03:11:44;101794.31;;;15.80;100.00
71970;BME280;59838;52.152;5.436;2023-08-24T03:14:10;101790.69;;;15.81;100.00
71970;BME280;59838;52.152;5.436;2023-08-24T03:16:38;101788.28;;;15.80;100.00
71970;BME280;59838;52.152;5.436;2023-08-24T03:19:07;101782.97;;;15.73;100.00
71970;BME280;59838;52.152;5.436;2023-08-24T03:21:34;101772.47;;;15.66;100.00
71970;BME280;59838;52.152;5.436;2023-08-24T03:24:00;101772.66;;;15.65;100.00
71970;BME280;59838;52.152;5.436;2023-08-24T03:26:27;101764.72;;;15.58;100.00
71970;BME280;59838;52.152;5.436;2023-08-24T03:28:53;101758.84;;;15.49;100.00
71970;BME280;59838;52.152;5.436;2023-08-24T03:31:20;101754.75;;;15.40;100.00
71970;BME280;59838;52.152;5.436;2023-08-24T03:33:46;101740.44;;;15.36;100.00
71970;BME280;59838;52.152;5.436;2023-08-24T03:36:13;101732.97;;;15.33;100.00
71970;BME280;59838;52.152;5.436;2023-08-24T03:38:39;101735.59;;;15.33;100.00
71970;BME280;59838;52.152;5.436;2023-08-24T03:41:06;101745.88;;;15.34;100.00
71970;BME280;59838;52.152;5.436;2023-08-24T03:43:34;101739.75;;;15.27;100.00
71970;BME280;59838;52.152;5.436;2023-08-24T03:46:01;101744.53;;;15.17;100.00
71970;BME280;59838;52.152;5.436;2023-08-24T03:48:28;101737.44;;;15.11;100.00
71970;BME280;59838;52.152;5.436;2023-08-24T03:50:55;101744.91;;;15.14;100.00
71970;BME280;59838;52.152;5.436;2023-08-24T03:53:22;101734.88;;;15.17;100.00
71970;BME280;59838;52.152;5.436;2023-08-24T03:55:50;101729.44;;;15.19;100.00
71970;BME280;59838;52.152;5.436;2023-08-24T03:58:17;101738.53;;;15.23;100.00
71970;BME280;59838;52.152;5.436;2023-08-24T04:00:44;101733.31;;;15.23;100.00
71970;BME280;59838;52.152;5.436;2023-08-24T04:03:11;101725.25;;;15.25;100.00
71970;BME280;59838;52.152;5.436;2023-08-24T04:05:38;101721.78;;;15.17;100.00
71970;BME280;59838;52.152;5.436;2023-08-24T04:08:05;101725.00;;;15.13;100.00
71970;BME280;59838;52.152;5.436;2023-08-24T04:10:31;101725.19;;;15.11;100.00
71970;BME280;59838;52.152;5.436;2023-08-24T04:12:58;101732.84;;;15.13;100.00
71970;BME280;59838;52.152;5.436;2023-08-24T04:15:25;101736.88;;;15.15;100.00
71970;BME280;59838;52.152;5.436;2023-08-24T04:17:51;101737.88;;;15.14;100.00
71970;BME280;59838;52.152;5.436;2023-08-24T04:20:18;101730.41;;;15.11;100.00
71970;BME280;59838;52.152;5.436;2023-08-24T04:22:44;101736.81;;;15.09;100.00
71970;BME280;59838;52.152;5.436;2023-08-24T04:25:11;101740.63;;;15.06;100.00
71970;BME280;59838;52.152;5.436;2023-08-24T04:27:37;101744.06;;;15.07;100.00
71970;BME280;59838;52.152;5.436;2023-08-24T04:30:04;101739.63;;;15.07;100.00
71970;BME280;59838;52.152;5.436;2023-08-24T04:32:31;101744.88;;;15.07;100.00
71970;BME280;59838;52.152;5.436;2023-08-24T04:34:58;101740.63;;;15.06;100.00
71970;BME280;59838;52.152;5.436;2023-08-24T04:37:24;101743.44;;;15.05;100.00
71970;BME280;59838;52.152;5.436;2023-08-24T04:39:51;101746.69;;;15.07;100.00
71970;BME280;59838;52.152;5.436;2023-08-24T04:42:17;101750.09;;;15.07;100.00
71970;BME280;59838;52.152;5.436;2023-08-24T04:44:44;101741.06;;;15.10;100.00
71970;BME280;59838;52.152;5.436;2023-08-24T04:47:10;101739.25;;;15.10;100.00
71970;BME280;59838;52.152;5.436;2023-08-24T04:49:37;101741.69;;;15.12;100.00
71970;BME280;59838;52.152;5.436;2023-08-24T04:52:03;101741.13;;;15.16;100.00
71970;BME280;59838;52.152;5.436;2023-08-24T04:54:32;101738.13;;;15.20;100.00
71970;BME280;59838;52.152;5.436;2023-08-24T04:56:58;101737.34;;;15.26;100.00
71970;BME280;59838;52.152;5.436;2023-08-24T04:59:25;101738.19;;;15.33;100.00
71970;BME280;59838;52.152;5.436;2023-08-24T05:01:51;101738.66;;;15.43;100.00
71970;BME280;59838;52.152;5.436;2023-08-24T05:04:18;101740.31;;;15.51;100.00
71970;BME280;59838;52.152;5.436;2023-08-24T05:06:44;101741.41;;;15.63;100.00
71970;BME280;59838;52.152;5.436;2023-08-24T05:09:11;101736.84;;;15.79;100.00
71970;BME280;59838;52.152;5.436;2023-08-24T05:11:37;101736.97;;;15.99;100.00
71970;BME280;59838;52.152;5.436;2023-08-24T05:14:03;101728.94;;;16.14;100.00
71970;BME280;59838;52.152;5.436;2023-08-24T05:16:30;101735.06;;;16.54;100.00
71970;BME280;59838;52.152;5.436;2023-08-24T05:18:57;101727.03;;;17.09;100.00
71970;BME280;59838;52.152;5.436;2023-08-24T05:21:24;101726.53;;;17.46;100.00
71970;BME280;59838;52.152;5.436;2023-08-24T05:23:50;101723.03;;;17.65;100.00
71970;BME280;59838;52.152;5.436;2023-08-24T05:26:16;101723.94;;;17.39;100.00
71970;BME280;59838;52.152;5.436;2023-08-24T05:28:49;101707.59;;;17.96;100.00
71970;BME280;59838;52.152;5.436;2023-08-24T05:31:15;101715.91;;;17.79;100.00
71970;BME280;59838;52.152;5.436;2023-08-24T05:33:45;101696.66;;;18.56;100.00
71970;BME280;59838;52.152;5.436;2023-08-24T05:36:11;101698.06;;;19.46;100.00
71970;BME280;59838;52.152;5.436;2023-08-24T05:38:38;101690.88;;;20.02;96.93
71970;BME280;59838;52.152;5.436;2023-08-24T05:41:16;101680.78;;;20.41;92.69
71970;BME280;59838;52.152;5.436;2023-08-24T05:43:43;101677.69;;;20.56;90.61
71970;BME280;59838;52.152;5.436;2023-08-24T05:46:09;101687.34;;;20.97;88.81
71970;BME280;59838;52.152;5.436;2023-08-24T05:48:36;101685.72;;;21.20;86.92
71970;BME280;59838;52.152;5.436;2023-08-24T05:51:02;101676.94;;;21.55;85.47
71970;BME280;59838;52.152;5.436;2023-08-24T05:53:29;101672.59;;;21.37;84.69
71970;BME280;59838;52.152;5.436;2023-08-24T05:55:58;101667.63;;;21.52;85.16
71970;BME280;59838;52.152;5.436;2023-08-24T05:58:25;101666.28;;;21.67;84.30
71970;BME280;59838;52.152;5.436;2023-08-24T06:00:58;101669.66;;;21.62;83.52
71970;BME280;59838;52.152;5.436;2023-08-24T06:03:25;101667.84;;;21.80;82.31
71970;BME280;59838;52.152;5.436;2023-08-24T06:05:52;101666.50;;;21.77;82.70
71970;BME280;59838;52.152;5.436;2023-08-24T06:08:18;101662.13;;;22.00;82.50
71970;BME280;59838;52.152;5.436;2023-08-24T06:10:45;101659.16;;;22.13;81.41
71970;BME280;59838;52.152;5.436;2023-08-24T06:13:12;101658.06;;;22.26;80.39
71970;BME280;59838;52.152;5.436;2023-08-24T06:15:38;101656.19;;;22.09;80.62
71970;BME280;59838;52.152;5.436;2023-08-24T06:18:05;101648.47;;;21.74;82.29
71970;BME280;59838;52.152;5.436;2023-08-24T06:20:31;101644.28;;;21.49;83.64
71970;BME280;59838;52.152;5.436;2023-08-24T06:22:58;101645.34;;;21.48;84.69
71970;BME280;59838;52.152;5.436;2023-08-24T06:25:25;101657.63;;;21.43;85.58
71970;BME280;59838;52.152;5.436;2023-08-24T06:27:51;101651.22;;;21.39;85.49
71970;BME280;59838;52.152;5.436;2023-08-24T06:30:18;101642.66;;;21.60;85.46
71970;BME280;59838;52.152;5.436;2023-08-24T06:32:45;101628.09;;;21.75;85.42
71970;BME280;59838;52.152;5.436;2023-08-24T06:35:12;101619.28;;;21.86;84.65
71970;BME280;59838;52.152;5.436;2023-08-24T06:37:42;101622.91;;;22.64;81.77
71970;BME280;59838;52.152;5.436;2023-08-24T06:40:09;101623.06;;;22.97;79.35
71970;BME280;59838;52.152;5.436;2023-08-24T06:42:37;101630.69;;;23.38;77.78
71970;BME280;59838;52.152;5.436;2023-08-24T06:45:03;101620.69;;;22.39;78.60
71970;BME280;59838;52.152;5.436;2023-08-24T06:47:30;101614.34;;;22.40;81.17
71970;BME280;59838;52.152;5.436;2023-08-24T06:49:56;101608.22;;;22.79;79.84
71970;BME280;59838;52.152;5.436;2023-08-24T06:52:23;101609.69;;;23.31;77.83
71970;BME280;59838;52.152;5.436;2023-08-24T06:54:50;101602.38;;;23.70;75.49
71970;BME280;59838;52.152;5.436;2023-08-24T06:57:20;101595.06;;;24.15;74.73
71970;BME280;59838;52.152;5.436;2023-08-24T06:59:46;101595.25;;;24.46;72.40
71970;BME280;59838;52.152;5.436;2023-08-24T07:02:13;101586.22;;;24.52;73.32
71970;BME280;59838;52.152;5.436;2023-08-24T07:04:40;101604.81;;;24.52;71.56
71970;BME280;59838;52.152;5.436;2023-08-24T07:07:06;101608.63;;;24.67;70.75
71970;BME280;59838;52.152;5.436;2023-08-24T07:09:33;101603.06;;;24.68;71.23
71970;BME280;59838;52.152;5.436;2023-08-24T07:12:00;101605.63;;;24.53;71.60
71970;BME280;59838;52.152;5.436;2023-08-24T07:14:26;101599.59;;;24.62;72.55
71970;BME280;59838;52.152;5.436;2023-08-24T07:16:53;101594.28;;;24.62;71.36
71970;BME280;59838;52.152;5.436;2023-08-24T07:19:19;101585.25;;;24.63;73.50
71970;BME280;59838;52.152;5.436;2023-08-24T07:21:47;101584.88;;;25.03;71.40
71970;BME280;59838;52.152;5.436;2023-08-24T07:24:13;101578.19;;;24.90;68.46
71970;BME280;59838;52.152;5.436;2023-08-24T07:26:40;101585.88;;;24.86;70.71
71970;BME280;59838;52.152;5.436;2023-08-24T07:29:08;101598.19;;;24.55;71.44
71970;BME280;59838;52.152;5.436;2023-08-24T07:31:35;101600.22;;;24.80;70.44
71970;BME280;59838;52.152;5.436;2023-08-24T07:34:04;101587.03;;;25.11;68.75
71970;BME280;59838;52.152;5.436;2023-08-24T07:36:31;101587.28;;;25.09;70.22
71970;BME280;59838;52.152;5.436;2023-08-24T07:38:57;101598.25;;;25.28;68.33
71970;BME280;59838;52.152;5.436;2023-08-24T07:41:24;101587.66;;;25.64;68.45
71970;BME280;59838;52.152;5.436;2023-08-24T07:43:50;101585.25;;;25.58;67.95
71970;BME280;59838;52.152;5.436;2023-08-24T07:46:17;101584.19;;;25.59;68.62
71970;BME280;59838;52.152;5.436;2023-08-24T07:48:43;101594.56;;;25.55;68.87
71970;BME280;59838;52.152;5.436;2023-08-24T07:51:10;101586.25;;;25.26;68.80
71970;BME280;59838;52.152;5.436;2023-08-24T07:53:36;101595.19;;;24.94;69.73
71970;BME280;59838;52.152;5.436;2023-08-24T07:56:03;101589.94;;;24.46;73.74
71970;BME280;59838;52.152;5.436;2023-08-24T07:58:29;101584.19;;;24.17;73.34
71970;BME280;59838;52.152;5.436;2023-08-24T08:00:59;101592.53;;;23.98;76.37
71970;BME280;59838;52.152;5.436;2023-08-24T08:03:25;101602.66;;;24.06;75.74
71970;BME280;59838;52.152;5.436;2023-08-24T08:05:52;101594.56;;;24.23;75.29
71970;BME280;59838;52.152;5.436;2023-08-24T08:08:18;101588.56;;;24.01;75.84
71970;BME280;59838;52.152;5.436;2023-08-24T08:10:45;101601.09;;;24.05;77.16
71970;BME280;59838;52.152;5.436;2023-08-24T08:13:11;101594.38;;;23.98;75.84
71970;BME280;59838;52.152;5.436;2023-08-24T08:15:38;101587.44;;;23.91;76.00
71970;BME280;59838;52.152;5.436;2023-08-24T08:18:05;101576.34;;;24.00;77.16
71970;BME280;59838;52.152;5.436;2023-08-24T08:20:32;101573.28;;;24.18;77.49
71970;BME280;59838;52.152;5.436;2023-08-24T08:22:58;101569.03;;;24.17;76.39
71970;BME280;59838;52.152;5.436;2023-08-24T08:25:25;101564.78;;;24.16;76.00
71970;BME280;59838;52.152;5.436;2023-08-24T08:27:52;101561.81;;;24.07;75.86
71970;BME280;59838;52.152;5.436;2023-08-24T08:30:19;101554.84;;;23.96;76.38
71970;BME280;59838;52.152;5.436;2023-08-24T08:32:46;101561.72;;;23.97;77.63
71970;BME280;59838;52.152;5.436;2023-08-24T08:35:13;101565.78;;;24.05;77.50
71970;BME280;59838;52.152;5.436;2023-08-24T08:37:39;101559.19;;;24.13;75.39
71970;BME280;59838;52.152;5.436;2023-08-24T08:40:09;101544.06;;;24.18;74.20
71970;BME280;59838;52.152;5.436;2023-08-24T08:42:36;101545.19;;;24.22;73.68
71970;BME280;59838;52.152;5.436;2023-08-24T08:45:08;101543.72;;;24.52;74.52
71970;BME280;59838;52.152;5.436;2023-08-24T08:47:34;101536.00;;;24.51;73.47
71970;BME280;59838;52.152;5.436;2023-08-24T08:50:02;101527.25;;;24.50;72.50
71970;BME280;59838;52.152;5.436;2023-08-24T08:52:31;101529.44;;;24.63;72.07
71970;BME280;59838;52.152;5.436;2023-08-24T08:54:57;101526.34;;;24.82;73.40
71970;BME280;59838;52.152;5.436;2023-08-24T08:57:25;101513.31;;;24.86;73.59
71970;BME280;59838;52.152;5.436;2023-08-24T08:59:52;101518.31;;;24.72;72.59
71970;BME280;59838;52.152;5.436;2023-08-24T09:02:19;101513.56;;;24.79;73.07
71970;BME280;59838;52.152;5.436;2023-08-24T09:04:48;101510.94;;;24.89;70.96
71970;BME280;59838;52.152;5.436;2023-08-24T09:07:17;101491.81;;;24.92;72.62
71970;BME280;59838;52.152;5.436;2023-08-24T09:09:43;101498.16;;;24.86;72.43
71970;BME280;59838;52.152;5.436;2023-08-24T09:12:10;101497.38;;;24.91;74.09
71970;BME280;59838;52.152;5.436;2023-08-24T09:14:36;101505.34;;;24.91;74.47
71970;BME280;59838;52.152;5.436;2023-08-24T09:17:03;101495.00;;;24.94;73.29
71970;BME280;59838;52.152;5.436;2023-08-24T09:19:30;101491.84;;;25.03;72.42
71970;BME280;59838;52.152;5.436;2023-08-24T09:21:58;101485.97;;;25.06;72.09
71970;BME280;59838;52.152;5.436;2023-08-24T09:24:32;101479.13;;;25.35;71.52
71970;BME280;59838;52.152;5.436;2023-08-24T09:27:00;101469.00;;;25.27;71.83
71970;BME280;59838;52.152;5.436;2023-08-24T09:29:27;101463.44;;;25.34;73.19
71970;BME280;59838;52.152;5.436;2023-08-24T09:31:54;101459.94;;;25.59;70.07
71970;BME280;59838;52.152;5.436;2023-08-24T09:34:24;101459.94;;;25.64;67.52
71970;BME280;59838;52.152;5.436;2023-08-24T09:36:53;101458.28;;;25.79;67.05
71970;BME280;59838;52.152;5.436;2023-08-24T09:39:19;101456.16;;;25.91;66.89
71970;BME280;59838;52.152;5.436;2023-08-24T09:41:50;101450.81;;;26.01;68.19
71970;BME280;59838;52.152;5.436;2023-08-24T09:44:17;101449.19;;;26.11;68.29
71970;BME280;59838;52.152;5.436;2023-08-24T09:46:44;101447.88;;;26.08;69.48
71970;BME280;59838;52.152;5.436;2023-08-24T09:49:11;101450.56;;;25.98;68.58
71970;BME280;59838;52.152;5.436;2023-08-24T09:51:39;101447.09;;;25.92;67.02
71970;BME280;59838;52.152;5.436;2023-08-24T09:54:10;101440.41;;;25.95;67.87
71970;BME280;59838;52.152;5.436;2023-08-24T09:56:39;101445.41;;;26.22;66.03
71970;BME280;59838;52.152;5.436;2023-08-24T09:59:16;101439.75;;;26.34;67.32
71970;BME280;59838;52.152;5.436;2023-08-24T10:01:46;101444.31;;;26.28;68.69
71970;BME280;59838;52.152;5.436;2023-08-24T10:04:15;101442.63;;;26.48;67.94
71970;BME280;59838;52.152;5.436;2023-08-24T10:06:44;101449.28;;;26.50;67.03
71970;BME280;59838;52.152;5.436;2023-08-24T10:09:22;101446.06;;;26.53;67.82
71970;BME280;59838;52.152;5.436;2023-08-24T10:11:56;101448.16;;;26.61;68.87
71970;BME280;59838;52.152;5.436;2023-08-24T10:17:15;101442.63;;;26.48;70.63
71970;BME280;59838;52.152;5.436;2023-08-24T10:19:42;101442.16;;;26.35;69.92
71970;BME280;59838;52.152;5.436;2023-08-24T10:22:10;101440.91;;;26.17;68.86
71970;BME280;59838;52.152;5.436;2023-08-24T10:24:38;101439.63;;;26.09;69.01
71970;BME280;59838;52.152;5.436;2023-08-24T10:27:05;101430.88;;;25.99;70.53
71970;BME280;59838;52.152;5.436;2023-08-24T10:29:35;101435.09;;;25.95;72.01
71970;BME280;59838;52.152;5.436;2023-08-24T10:32:02;101435.94;;;25.80;71.86
71970;BME280;59838;52.152;5.436;2023-08-24T10:34:30;101438.09;;;25.62;73.65
71970;BME280;59838;52.152;5.436;2023-08-24T10:36:57;101430.69;;;25.54;72.30
71970;BME280;59838;52.152;5.436;2023-08-24T10:39:27;101433.88;;;25.46;72.49
71970;BME280;59838;52.152;5.436;2023-08-24T10:41:55;101431.00;;;25.32;71.25
71970;BME280;59838;52.152;5.436;2023-08-24T10:44:33;101431.78;;;25.27;73.95
71970;BME280;59838;52.152;5.436;2023-08-24T10:47:15;101437.59;;;25.24;74.12
71970;BME280;59838;52.152;5.436;2023-08-24T10:49:42;101436.25;;;25.22;75.09
71970;BME280;59838;52.152;5.436;2023-08-24T10:52:36;101450.91;;;25.19;76.95
71970;BME280;59838;52.152;5.436;2023-08-24T10:55:22;101455.94;;;25.15;77.07
71970;BME280;59838;52.152;5.436;2023-08-24T10:57:59;101439.75;;;25.22;78.96
71970;BME280;59838;52.152;5.436;2023-08-24T11:00:27;101431.00;;;25.32;80.68
71970;BME280;59838;52.152;5.436;2023-08-24T11:02:56;101430.44;;;25.40;82.16
71970;BME280;59838;52.152;5.436;2023-08-24T11:05:28;101433.88;;;25.46;78.93
71970;BME280;59838;52.152;5.436;2023-08-24T11:07:58;101429.91;;;25.38;78.86
71970;BME280;59838;52.152;5.436;2023-08-24T11:13:17;101420.88;;;25.24;80.27
71970;BME280;59838;52.152;5.436;2023-08-24T11:15:47;101431.78;;;25.32;80.39
71970;BME280;59838;52.152;5.436;2023-08-24T11:18:28;101432.81;;;25.36;81.31
71970;BME280;59838;52.152;5.436;2023-08-24T11:21:05;101419.00;;;25.40;81.54
71970;BME280;59838;52.152;5.436;2023-08-24T11:23:33;101412.88;;;25.39;79.11
71970;BME280;59838;52.152;5.436;2023-08-24T11:26:00;101409.94;;;25.25;79.70
71970;BME280;59838;52.152;5.436;2023-08-24T11:28:28;101407.31;;;25.30;79.99
71970;BME280;59838;52.152;5.436;2023-08-24T11:30:56;101396.38;;;25.27;78.50
71970;BME280;59838;52.152;5.436;2023-08-24T11:33:34;101383.63;;;25.24;78.33
71970;BME280;59838;52.152;5.436;2023-08-24T11:36:03;101385.22;;;25.14;79.31
71970;BME280;59838;52.152;5.436;2023-08-24T11:38:41;101378.56;;;25.12;79.04
71970;BME280;59838;52.152;5.436;2023-08-24T11:41:12;101374.88;;;25.08;80.17
71970;BME280;59838;52.152;5.436;2023-08-24T11:43:39;101371.66;;;25.06;79.16
71970;BME280;59838;52.152;5.436;2023-08-24T11:46:06;101369.00;;;25.16;80.60
71970;BME280;59838;52.152;5.436;2023-08-24T11:48:32;101360.22;;;25.10;79.48
71970;BME280;59838;52.152;5.436;2023-08-24T11:50:59;101355.97;;;25.04;80.36
71970;BME280;59838;52.152;5.436;2023-08-24T11:53:26;101353.06;;;25.06;81.76
71970;BME280;59838;52.152;5.436;2023-08-24T11:55:53;101351.72;;;25.18;81.21
71970;BME280;59838;52.152;5.436;2023-08-24T11:58:31;101350.38;;;25.42;80.96
71970;BME280;59838;52.152;5.436;2023-08-24T12:00:58;101346.91;;;25.51;83.25
71970;BME280;59838;52.152;5.436;2023-08-24T12:03:24;101346.88;;;25.62;80.03
71970;BME280;59838;52.152;5.436;2023-08-24T12:05:51;101345.22;;;25.76;79.17
71970;BME280;59838;52.152;5.436;2023-08-24T12:08:18;101341.78;;;25.76;77.04
71970;BME280;59838;52.152;5.436;2023-08-24T12:10:44;101344.91;;;25.88;78.48
71970;BME280;59838;52.152;5.436;2023-08-24T12:13:12;101344.31;;;26.06;76.69
71970;BME280;59838;52.152;5.436;2023-08-24T12:15:40;101338.44;;;26.09;75.83
71970;BME280;59838;52.152;5.436;2023-08-24T12:18:09;101337.97;;;26.42;76.48
71970;BME280;59838;52.152;5.436;2023-08-24T12:20:35;101339.47;;;26.58;72.57
71970;BME280;59838;52.152;5.436;2023-08-24T12:23:02;101333.13;;;26.84;73.21
71970;BME280;59838;52.152;5.436;2023-08-24T12:25:29;101331.06;;;27.05;73.47
71970;BME280;59838;52.152;5.436;2023-08-24T12:28:15;101315.59;;;26.77;73.95
71970;BME280;59838;52.152;5.436;2023-08-24T12:30:43;101309.69;;;26.80;72.61
71970;BME280;59838;52.152;5.436;2023-08-24T12:33:24;101310.31;;;26.72;71.24
71970;BME280;59838;52.152;5.436;2023-08-24T12:35:52;101300.78;;;26.61;73.60
71970;BME280;59838;52.152;5.436;2023-08-24T12:38:19;101302.00;;;26.79;70.75
71970;BME280;59838;52.152;5.436;2023-08-24T12:40:46;101296.81;;;26.58;71.65
71970;BME280;59838;52.152;5.436;2023-08-24T12:43:12;101284.94;;;26.45;71.51
71970;BME280;59838;52.152;5.436;2023-08-24T12:45:40;101272.88;;;26.19;73.94
71970;BME280;59838;52.152;5.436;2023-08-24T12:48:07;101263.34;;;26.07;75.12
71970;BME280;59838;52.152;5.436;2023-08-24T12:50:34;101255.69;;;26.01;75.67
71970;BME280;59838;52.152;5.436;2023-08-24T12:53:01;101243.25;;;25.86;75.40
71970;BME280;59838;52.152;5.436;2023-08-24T12:55:29;101256.03;;;25.79;75.65
71970;BME280;59838;52.152;5.436;2023-08-24T12:57:55;101249.59;;;25.90;75.60